sensor_id;sensor_type;location;lat;lon;timestamp;P1;durP1;ratioP1;P2;durP2;ratioP2
81396;SDS011;70852;49.908;8.126;2024-02-15T00:01:29;7.05;;;3.67;;
81396;SDS011;70852;49.908;8.126;2024-02-15T00:03:54;5.35;;;3.47;;
81396;SDS011;70852;49.908;8.126;2024-02-15T00:06:20;10.35;;;4.45;;
81396;SDS011;70852;49.908;8.126;2024-02-15T00:08:45;8.68;;;4.50;;
81396;SDS011;70852;49.908;8.126;2024-02-15T00:11:12;13.48;;;5.38;;
81396;SDS011;70852;49.908;8.126;2024-02-15T00:13:40;14.93;;;5.03;;
81396;SDS011;70852;49.908;8.126;2024-02-15T00:16:15;10.90;;;4.63;;
81396;SDS011;70852;49.908;8.126;2024-02-15T00:18:42;14.50;;;5.15;;
81396;SDS011;70852;49.908;8.126;2024-02-15T00:21:08;10.25;;;4.43;;
81396;SDS011;70852;49.908;8.126;2024-02-15T00:23:33;8.90;;;4.40;;
81396;SDS011;70852;49.908;8.126;2024-02-15T00:25:58;13.32;;;5.63;;
81396;SDS011;70852;49.908;8.126;2024-02-15T00:28:24;9.90;;;4.38;;
81396;SDS011;70852;49.908;8.126;2024-02-15T00:30:54;9.55;;;4.05;;
81396;SDS011;70852;49.908;8.126;2024-02-15T00:33:19;11.00;;;4.60;;
81396;SDS011;70852;49.908;8.126;2024-02-15T00:35:47;9.80;;;4.20;;
81396;SDS011;70852;49.908;8.126;2024-02-15T00:38:16;9.30;;;4.32;;
81396;SDS011;70852;49.908;8.126;2024-02-15T00:40:44;8.35;;;4.03;;
81396;SDS011;70852;49.908;8.126;2024-02-15T00:43:10;11.05;;;4.50;;
81396;SDS011;70852;49.908;8.126;2024-02-15T00:45:36;10.75;;;4.18;;
81396;SDS011;70852;49.908;8.126;2024-02-15T00:48:05;8.70;;;4.00;;
81396;SDS011;70852;49.908;8.126;2024-02-15T00:50:31;7.80;;;4.35;;
81396;SDS011;70852;49.908;8.126;2024-02-15T00:52:56;10.07;;;4.28;;
81396;SDS011;70852;49.908;8.126;2024-02-15T00:55:21;10.23;;;4.65;;
81396;SDS011;70852;49.908;8.126;2024-02-15T00:57:47;9.25;;;4.25;;
81396;SDS011;70852;49.908;8.126;2024-02-15T01:00:14;8.52;;;4.15;;
81396;SDS011;70852;49.908;8.126;2024-02-15T01:02:40;8.85;;;3.92;;
81396;SDS011;70852;49.908;8.126;2024-02-15T01:05:08;12.70;;;4.70;;
81396;SDS011;70852;49.908;8.126;2024-02-15T01:07:35;7.18;;;3.78;;
81396;SDS011;70852;49.908;8.126;2024-02-15T01:10:01;10.35;;;4.57;;
81396;SDS011;70852;49.908;8.126;2024-02-15T01:12:28;10.68;;;4.45;;
81396;SDS011;70852;49.908;8.126;2024-02-15T01:14:54;8.88;;;4.43;;
81396;SDS011;70852;49.908;8.126;2024-02-15T01:17:22;7.20;;;4.22;;
81396;SDS011;70852;49.908;8.126;2024-02-15T01:19:49;7.32;;;4.20;;
81396;SDS011;70852;49.908;8.126;2024-02-15T01:22:18;9.73;;;4.38;;
81396;SDS011;70852;49.908;8.126;2024-02-15T01:24:43;9.77;;;3.97;;
81396;SDS011;70852;49.908;8.126;2024-02-15T01:27:11;8.98;;;3.85;;
81396;SDS011;70852;49.908;8.126;2024-02-15T01:29:38;8.27;;;4.13;;
81396;SDS011;70852;49.908;8.126;2024-02-15T01:32:03;7.45;;;4.25;;
81396;SDS011;70852;49.908;8.126;2024-02-15T01:34:31;10.13;;;4.07;;
81396;SDS011;70852;49.908;8.126;2024-02-15T01:36:57;6.93;;;3.85;;
81396;SDS011;70852;49.908;8.126;2024-02-15T01:39:22;7.15;;;3.70;;
81396;SDS011;70852;49.908;8.126;2024-02-15T01:41:48;7.25;;;3.90;;
81396;SDS011;70852;49.908;8.126;2024-02-15T01:44:20;7.90;;;3.70;;
81396;SDS011;70852;49.908;8.126;2024-02-15T01:46:48;8.35;;;4.07;;
81396;SDS011;70852;49.908;8.126;2024-02-15T01:49:14;6.70;;;3.67;;
81396;SDS011;70852;49.908;8.126;2024-02-15T01:51:40;6.82;;;3.58;;
81396;SDS011;70852;49.908;8.126;2024-02-15T01:54:08;9.40;;;4.20;;
81396;SDS011;70852;49.908;8.126;2024-02-15T01:56:38;7.05;;;4.22;;
81396;SDS011;70852;49.908;8.126;2024-02-15T01:59:06;8.88;;;3.88;;
81396;SDS011;70852;49.908;8.126;2024-02-15T02:01:35;7.28;;;4.13;;
81396;SDS011;70852;49.908;8.126;2024-02-15T02:04:00;8.65;;;3.85;;
81396;SDS011;70852;49.908;8.126;2024-02-15T02:06:28;8.43;;;3.70;;
81396;SDS011;70852;49.908;8.126;2024-02-15T02:08:55;9.93;;;3.92;;
81396;SDS011;70852;49.908;8.126;2024-02-15T02:11:23;6.07;;;3.78;;
81396;SDS011;70852;49.908;8.126;2024-02-15T02:16:27;6.57;;;3.60;;
81396;SDS011;70852;49.908;8.126;2024-02-15T02:21:23;9.18;;;3.67;;
81396;SDS011;70852;49.908;8.126;2024-02-15T02:23:52;7.78;;;3.30;;
81396;SDS011;70852;49.908;8.126;2024-02-15T02:28:49;6.78;;;3.40;;
81396;SDS011;70852;49.908;8.126;2024-02-15T02:31:14;8.63;;;4.38;;
81396;SDS011;70852;49.908;8.126;2024-02-15T02:33:42;7.70;;;3.83;;
81396;SDS011;70852;49.908;8.126;2024-02-15T02:36:25;6.53;;;3.70;;
81396;SDS011;70852;49.908;8.126;2024-02-15T02:38:51;8.30;;;3.92;;
81396;SDS011;70852;49.908;8.126;2024-02-15T02:41:19;7.68;;;3.88;;
81396;SDS011;70852;49.908;8.126;2024-02-15T02:43:44;7.43;;;3.75;;
81396;SDS011;70852;49.908;8.126;2024-02-15T02:46:12;6.53;;;3.72;;
81396;SDS011;70852;49.908;8.126;2024-02-15T02:48:38;7.28;;;4.00;;
81396;SDS011;70852;49.908;8.126;2024-02-15T02:51:04;7.00;;;3.85;;
81396;SDS011;70852;49.908;8.126;2024-02-15T02:53:34;7.53;;;4.00;;
81396;SDS011;70852;49.908;8.126;2024-02-15T02:56:02;7.00;;;3.92;;
81396;SDS011;70852;49.908;8.126;2024-02-15T02:58:28;7.57;;;4.13;;
81396;SDS011;70852;49.908;8.126;2024-02-15T03:00:54;7.00;;;4.05;;
81396;SDS011;70852;49.908;8.126;2024-02-15T03:03:25;6.28;;;3.83;;
81396;SDS011;70852;49.908;8.126;2024-02-15T03:05:52;6.72;;;3.78;;
81396;SDS011;70852;49.908;8.126;2024-02-15T03:08:19;7.35;;;3.78;;
81396;SDS011;70852;49.908;8.126;2024-02-15T03:10:44;6.10;;;3.35;;
81396;SDS011;70852;49.908;8.126;2024-02-15T03:13:14;6.57;;;3.78;;
81396;SDS011;70852;49.908;8.126;2024-02-15T03:15:39;7.90;;;3.65;;
81396;SDS011;70852;49.908;8.126;2024-02-15T03:18:11;7.22;;;3.70;;
81396;SDS011;70852;49.908;8.126;2024-02-15T03:20:37;7.43;;;3.63;;
81396;SDS011;70852;49.908;8.126;2024-02-15T03:23:02;7.78;;;3.53;;
81396;SDS011;70852;49.908;8.126;2024-02-15T03:25:28;8.68;;;3.53;;
81396;SDS011;70852;49.908;8.126;2024-02-15T03:27:57;7.93;;;4.13;;
81396;SDS011;70852;49.908;8.126;2024-02-15T03:30:24;6.90;;;3.40;;
81396;SDS011;70852;49.908;8.126;2024-02-15T03:32:56;7.00;;;3.50;;
81396;SDS011;70852;49.908;8.126;2024-02-15T03:35:25;5.97;;;3.45;;
81396;SDS011;70852;49.908;8.126;2024-02-15T03:37:53;6.43;;;3.45;;
81396;SDS011;70852;49.908;8.126;2024-02-15T03:40:19;8.85;;;3.78;;
81396;SDS011;70852;49.908;8.126;2024-02-15T03:42:48;6.35;;;3.72;;
81396;SDS011;70852;49.908;8.126;2024-02-15T03:45:15;6.72;;;3.65;;
81396;SDS011;70852;49.908;8.126;2024-02-15T03:47:41;5.82;;;3.33;;
81396;SDS011;70852;49.908;8.126;2024-02-15T03:50:11;5.85;;;3.40;;
81396;SDS011;70852;49.908;8.126;2024-02-15T03:52:39;6.40;;;3.33;;
81396;SDS011;70852;49.908;8.126;2024-02-15T03:55:06;6.45;;;3.38;;
81396;SDS011;70852;49.908;8.126;2024-02-15T03:57:32;5.47;;;3.25;;
81396;SDS011;70852;49.908;8.126;2024-02-15T03:59:58;6.35;;;3.60;;
81396;SDS011;70852;49.908;8.126;2024-02-15T04:02:25;8.40;;;3.95;;
81396;SDS011;70852;49.908;8.126;2024-02-15T04:04:55;7.50;;;3.55;;
81396;SDS011;70852;49.908;8.126;2024-02-15T04:07:25;9.02;;;3.63;;
81396;SDS011;70852;49.908;8.126;2024-02-15T04:09:51;5.43;;;3.05;;
81396;SDS011;70852;49.908;8.126;2024-02-15T04:12:22;5.78;;;3.55;;
81396;SDS011;70852;49.908;8.126;2024-02-15T04:14:50;7.43;;;3.65;;
81396;SDS011;70852;49.908;8.126;2024-02-15T04:17:16;6.18;;;3.28;;
81396;SDS011;70852;49.908;8.126;2024-02-15T04:19:47;6.15;;;3.45;;
81396;SDS011;70852;49.908;8.126;2024-02-15T04:22:15;8.05;;;3.97;;
81396;SDS011;70852;49.908;8.126;2024-02-15T04:24:44;7.65;;;4.05;;
81396;SDS011;70852;49.908;8.126;2024-02-15T04:27:12;6.78;;;3.70;;
81396;SDS011;70852;49.908;8.126;2024-02-15T04:29:38;9.32;;;3.78;;
81396;SDS011;70852;49.908;8.126;2024-02-15T04:32:09;6.20;;;3.63;;
81396;SDS011;70852;49.908;8.126;2024-02-15T04:34:40;7.38;;;3.88;;
81396;SDS011;70852;49.908;8.126;2024-02-15T04:37:06;6.30;;;3.70;;
81396;SDS011;70852;49.908;8.126;2024-02-15T04:39:33;7.45;;;4.03;;
81396;SDS011;70852;49.908;8.126;2024-02-15T04:42:02;7.38;;;3.78;;
81396;SDS011;70852;49.908;8.126;2024-02-15T04:44:32;6.85;;;3.85;;
81396;SDS011;70852;49.908;8.126;2024-02-15T04:47:00;6.95;;;3.45;;
81396;SDS011;70852;49.908;8.126;2024-02-15T04:49:26;7.95;;;4.35;;
81396;SDS011;70852;49.908;8.126;2024-02-15T04:51:54;6.60;;;3.72;;
81396;SDS011;70852;49.908;8.126;2024-02-15T04:54:22;7.80;;;4.45;;
81396;SDS011;70852;49.908;8.126;2024-02-15T04:56:50;7.55;;;3.92;;
81396;SDS011;70852;49.908;8.126;2024-02-15T04:59:22;6.97;;;3.85;;
81396;SDS011;70852;49.908;8.126;2024-02-15T05:01:54;6.03;;;3.30;;
81396;SDS011;70852;49.908;8.126;2024-02-15T05:04:19;6.70;;;3.78;;
81396;SDS011;70852;49.908;8.126;2024-02-15T05:11:43;6.22;;;3.50;;
81396;SDS011;70852;49.908;8.126;2024-02-15T05:14:14;5.68;;;3.25;;
81396;SDS011;70852;49.908;8.126;2024-02-15T05:16:46;7.03;;;4.03;;
81396;SDS011;70852;49.908;8.126;2024-02-15T05:19:14;7.45;;;3.90;;
81396;SDS011;70852;49.908;8.126;2024-02-15T05:21:43;6.45;;;3.50;;
81396;SDS011;70852;49.908;8.126;2024-02-15T05:24:15;7.78;;;3.53;;
81396;SDS011;70852;49.908;8.126;2024-02-15T05:26:43;8.20;;;3.88;;
81396;SDS011;70852;49.908;8.126;2024-02-15T05:29:14;7.03;;;3.85;;
81396;SDS011;70852;49.908;8.126;2024-02-15T05:31:45;6.35;;;3.65;;
81396;SDS011;70852;49.908;8.126;2024-02-15T05:34:11;7.28;;;3.97;;
81396;SDS011;70852;49.908;8.126;2024-02-15T05:36:39;7.00;;;3.78;;
81396;SDS011;70852;49.908;8.126;2024-02-15T05:39:05;6.32;;;3.58;;
81396;SDS011;70852;49.908;8.126;2024-02-15T05:41:31;6.30;;;3.85;;
81396;SDS011;70852;49.908;8.126;2024-02-15T05:43:59;6.93;;;3.60;;
81396;SDS011;70852;49.908;8.126;2024-02-15T05:46:33;6.28;;;3.67;;
81396;SDS011;70852;49.908;8.126;2024-02-15T05:49:04;6.07;;;3.53;;
81396;SDS011;70852;49.908;8.126;2024-02-15T05:51:30;7.22;;;3.92;;
81396;SDS011;70852;49.908;8.126;2024-02-15T05:53:58;6.63;;;3.42;;
81396;SDS011;70852;49.908;8.126;2024-02-15T05:56:26;8.18;;;4.20;;
81396;SDS011;70852;49.908;8.126;2024-02-15T05:58:53;6.55;;;3.72;;
81396;SDS011;70852;49.908;8.126;2024-02-15T06:01:22;8.02;;;4.10;;
81396;SDS011;70852;49.908;8.126;2024-02-15T06:03:49;5.75;;;3.80;;
81396;SDS011;70852;49.908;8.126;2024-02-15T06:06:17;6.60;;;3.85;;
81396;SDS011;70852;49.908;8.126;2024-02-15T06:08:45;7.90;;;3.85;;
81396;SDS011;70852;49.908;8.126;2024-02-15T06:11:11;6.63;;;3.75;;
81396;SDS011;70852;49.908;8.126;2024-02-15T06:13:39;8.65;;;4.00;;
81396;SDS011;70852;49.908;8.126;2024-02-15T06:16:06;9.15;;;3.97;;
81396;SDS011;70852;49.908;8.126;2024-02-15T06:18:34;6.35;;;3.75;;
81396;SDS011;70852;49.908;8.126;2024-02-15T06:21:00;8.57;;;4.55;;
81396;SDS011;70852;49.908;8.126;2024-02-15T06:23:30;7.55;;;4.30;;
81396;SDS011;70852;49.908;8.126;2024-02-15T06:25:58;7.78;;;4.55;;
81396;SDS011;70852;49.908;8.126;2024-02-15T06:28:27;8.65;;;4.28;;
81396;SDS011;70852;49.908;8.126;2024-02-15T06:31:11;10.02;;;3.90;;
81396;SDS011;70852;49.908;8.126;2024-02-15T06:33:55;8.10;;;3.50;;
81396;SDS011;70852;49.908;8.126;2024-02-15T06:36:40;6.88;;;3.60;;
81396;SDS011;70852;49.908;8.126;2024-02-15T06:39:30;7.00;;;3.72;;
81396;SDS011;70852;49.908;8.126;2024-02-15T06:42:07;7.50;;;3.92;;
81396;SDS011;70852;49.908;8.126;2024-02-15T06:44:44;7.72;;;3.00;;
81396;SDS011;70852;49.908;8.126;2024-02-15T06:47:10;9.27;;;3.63;;
81396;SDS011;70852;49.908;8.126;2024-02-15T06:49:36;6.25;;;3.05;;
81396;SDS011;70852;49.908;8.126;2024-02-15T06:52:13;6.28;;;3.28;;
81396;SDS011;70852;49.908;8.126;2024-02-15T06:54:41;8.52;;;3.28;;
81396;SDS011;70852;49.908;8.126;2024-02-15T06:57:10;5.38;;;3.03;;
81396;SDS011;70852;49.908;8.126;2024-02-15T06:59:37;6.65;;;3.42;;
81396;SDS011;70852;49.908;8.126;2024-02-15T07:02:04;6.95;;;3.30;;
81396;SDS011;70852;49.908;8.126;2024-02-15T07:04:33;6.25;;;3.05;;
81396;SDS011;70852;49.908;8.126;2024-02-15T07:06:58;6.82;;;3.33;;
81396;SDS011;70852;49.908;8.126;2024-02-15T07:09:27;5.40;;;2.90;;
81396;SDS011;70852;49.908;8.126;2024-02-15T07:11:52;6.50;;;3.08;;
81396;SDS011;70852;49.908;8.126;2024-02-15T07:14:18;7.40;;;3.85;;
81396;SDS011;70852;49.908;8.126;2024-02-15T07:16:47;7.35;;;3.50;;
81396;SDS011;70852;49.908;8.126;2024-02-15T07:19:14;7.05;;;3.50;;
81396;SDS011;70852;49.908;8.126;2024-02-15T07:21:43;6.72;;;3.53;;
81396;SDS011;70852;49.908;8.126;2024-02-15T07:24:11;5.68;;;3.45;;
81396;SDS011;70852;49.908;8.126;2024-02-15T07:26:37;6.53;;;3.42;;
81396;SDS011;70852;49.908;8.126;2024-02-15T07:29:02;8.02;;;3.95;;
81396;SDS011;70852;49.908;8.126;2024-02-15T07:31:31;6.88;;;3.47;;
81396;SDS011;70852;49.908;8.126;2024-02-15T07:33:58;7.68;;;3.70;;
81396;SDS011;70852;49.908;8.126;2024-02-15T07:36:23;7.78;;;3.35;;
81396;SDS011;70852;49.908;8.126;2024-02-15T07:38:50;10.05;;;3.63;;
81396;SDS011;70852;49.908;8.126;2024-02-15T07:41:22;7.57;;;3.67;;
81396;SDS011;70852;49.908;8.126;2024-02-15T07:43:52;7.15;;;3.55;;
81396;SDS011;70852;49.908;8.126;2024-02-15T07:46:20;7.32;;;3.67;;
81396;SDS011;70852;49.908;8.126;2024-02-15T07:48:46;8.35;;;3.30;;
81396;SDS011;70852;49.908;8.126;2024-02-15T07:51:17;12.18;;;3.90;;
81396;SDS011;70852;49.908;8.126;2024-02-15T07:53:49;6.20;;;3.33;;
81396;SDS011;70852;49.908;8.126;2024-02-15T07:56:15;6.43;;;3.72;;
81396;SDS011;70852;49.908;8.126;2024-02-15T07:58:48;6.47;;;3.28;;
81396;SDS011;70852;49.908;8.126;2024-02-15T08:01:19;5.22;;;3.22;;
81396;SDS011;70852;49.908;8.126;2024-02-15T08:03:48;7.70;;;3.92;;
81396;SDS011;70852;49.908;8.126;2024-02-15T08:06:16;8.95;;;4.20;;
81396;SDS011;70852;49.908;8.126;2024-02-15T08:08:45;7.10;;;4.43;;
81396;SDS011;70852;49.908;8.126;2024-02-15T08:11:17;6.65;;;3.88;;
81396;SDS011;70852;49.908;8.126;2024-02-15T08:13:45;9.00;;;3.90;;
81396;SDS011;70852;49.908;8.126;2024-02-15T08:16:23;9.52;;;4.03;;
81396;SDS011;70852;49.908;8.126;2024-02-15T08:18:52;7.85;;;4.03;;
81396;SDS011;70852;49.908;8.126;2024-02-15T08:21:24;8.20;;;4.18;;
81396;SDS011;70852;49.908;8.126;2024-02-15T08:23:50;8.43;;;4.10;;
81396;SDS011;70852;49.908;8.126;2024-02-15T08:26:15;6.95;;;4.35;;
81396;SDS011;70852;49.908;8.126;2024-02-15T08:28:43;10.15;;;4.13;;
81396;SDS011;70852;49.908;8.126;2024-02-15T08:31:10;9.75;;;4.95;;
81396;SDS011;70852;49.908;8.126;2024-02-15T08:33:42;12.07;;;5.03;;
81396;SDS011;70852;49.908;8.126;2024-02-15T08:36:10;9.07;;;4.47;;
81396;SDS011;70852;49.908;8.126;2024-02-15T08:38:39;9.45;;;4.53;;
81396;SDS011;70852;49.908;8.126;2024-02-15T08:41:06;7.35;;;4.32;;
81396;SDS011;70852;49.908;8.126;2024-02-15T08:43:33;8.00;;;4.28;;
81396;SDS011;70852;49.908;8.126;2024-02-15T08:45:58;7.78;;;4.35;;
81396;SDS011;70852;49.908;8.126;2024-02-15T08:48:26;8.40;;;4.13;;
81396;SDS011;70852;49.908;8.126;2024-02-15T08:50:51;5.97;;;3.63;;
81396;SDS011;70852;49.908;8.126;2024-02-15T08:53:24;6.78;;;4.07;;
81396;SDS011;70852;49.908;8.126;2024-02-15T08:55:49;6.28;;;3.72;;
81396;SDS011;70852;49.908;8.126;2024-02-15T08:58:20;8.00;;;3.85;;
81396;SDS011;70852;49.908;8.126;2024-02-15T09:00:51;7.93;;;4.10;;
81396;SDS011;70852;49.908;8.126;2024-02-15T09:03:19;7.45;;;4.28;;
81396;SDS011;70852;49.908;8.126;2024-02-15T09:05:44;9.15;;;4.07;;
81396;SDS011;70852;49.908;8.126;2024-02-15T09:08:09;8.23;;;3.92;;
81396;SDS011;70852;49.908;8.126;2024-02-15T09:10:37;10.70;;;4.32;;
81396;SDS011;70852;49.908;8.126;2024-02-15T09:13:04;7.50;;;4.13;;
81396;SDS011;70852;49.908;8.126;2024-02-15T09:15:31;8.63;;;4.13;;
81396;SDS011;70852;49.908;8.126;2024-02-15T09:17:57;10.43;;;5.25;;
81396;SDS011;70852;49.908;8.126;2024-02-15T09:20:24;9.10;;;4.80;;
81396;SDS011;70852;49.908;8.126;2024-02-15T09:22:53;10.07;;;5.47;;
81396;SDS011;70852;49.908;8.126;2024-02-15T09:25:19;10.00;;;4.78;;
81396;SDS011;70852;49.908;8.126;2024-02-15T09:27:45;7.55;;;4.35;;
81396;SDS011;70852;49.908;8.126;2024-02-15T09:30:14;8.52;;;4.88;;
81396;SDS011;70852;49.908;8.126;2024-02-15T09:32:43;8.70;;;4.40;;
81396;SDS011;70852;49.908;8.126;2024-02-15T09:35:16;6.53;;;3.65;;
81396;SDS011;70852;49.908;8.126;2024-02-15T09:37:44;6.43;;;3.60;;
81396;SDS011;70852;49.908;8.126;2024-02-15T09:40:14;8.63;;;3.78;;
81396;SDS011;70852;49.908;8.126;2024-02-15T09:42:41;7.68;;;3.47;;
81396;SDS011;70852;49.908;8.126;2024-02-15T09:45:12;7.05;;;3.40;;
81396;SDS011;70852;49.908;8.126;2024-02-15T09:47:42;7.40;;;3.45;;
81396;SDS011;70852;49.908;8.126;2024-02-15T09:50:08;5.80;;;3.22;;
81396;SDS011;70852;49.908;8.126;2024-02-15T09:52:44;4.82;;;2.63;;
81396;SDS011;70852;49.908;8.126;2024-02-15T09:55:17;7.50;;;3.17;;
81396;SDS011;70852;49.908;8.126;2024-02-15T09:57:44;5.93;;;2.58;;
81396;SDS011;70852;49.908;8.126;2024-02-15T10:00:12;5.13;;;2.83;;
81396;SDS011;70852;49.908;8.126;2024-02-15T10:02:46;5.90;;;2.63;;
81396;SDS011;70852;49.908;8.126;2024-02-15T10:05:18;5.35;;;2.53;;
81396;SDS011;70852;49.908;8.126;2024-02-15T10:07:44;7.65;;;2.63;;
81396;SDS011;70852;49.908;8.126;2024-02-15T10:10:14;5.63;;;2.70;;
81396;SDS011;70852;49.908;8.126;2024-02-15T10:12:41;6.20;;;2.67;;
81396;SDS011;70852;49.908;8.126;2024-02-15T10:15:08;5.85;;;2.53;;
81396;SDS011;70852;49.908;8.126;2024-02-15T10:17:54;5.40;;;2.45;;
81396;SDS011;70852;49.908;8.126;2024-02-15T10:20:23;5.47;;;2.50;;
81396;SDS011;70852;49.908;8.126;2024-02-15T10:22:51;5.43;;;2.60;;
81396;SDS011;70852;49.908;8.126;2024-02-15T10:25:22;5.03;;;2.88;;
81396;SDS011;70852;49.908;8.126;2024-02-15T10:27:49;6.32;;;2.78;;
81396;SDS011;70852;49.908;8.126;2024-02-15T10:30:15;6.38;;;2.95;;
81396;SDS011;70852;49.908;8.126;2024-02-15T10:32:43;6.22;;;2.92;;
81396;SDS011;70852;49.908;8.126;2024-02-15T10:35:09;5.75;;;2.70;;
81396;SDS011;70852;49.908;8.126;2024-02-15T10:37:37;6.00;;;2.60;;
81396;SDS011;70852;49.908;8.126;2024-02-15T10:40:06;6.00;;;2.67;;
81396;SDS011;70852;49.908;8.126;2024-02-15T10:42:35;5.45;;;2.50;;
81396;SDS011;70852;49.908;8.126;2024-02-15T10:45:04;4.25;;;2.13;;
81396;SDS011;70852;49.908;8.126;2024-02-15T10:47:33;5.72;;;2.28;;
81396;SDS011;70852;49.908;8.126;2024-02-15T10:50:01;6.32;;;2.47;;
81396;SDS011;70852;49.908;8.126;2024-02-15T10:52:28;5.05;;;2.30;;
81396;SDS011;70852;49.908;8.126;2024-02-15T10:55:01;5.22;;;2.45;;
81396;SDS011;70852;49.908;8.126;2024-02-15T10:57:30;4.88;;;2.50;;
81396;SDS011;70852;49.908;8.126;2024-02-15T10:59:59;5.88;;;2.42;;
81396;SDS011;70852;49.908;8.126;2024-02-15T11:02:37;5.03;;;2.30;;
81396;SDS011;70852;49.908;8.126;2024-02-15T11:05:08;7.78;;;2.72;;
81396;SDS011;70852;49.908;8.126;2024-02-15T11:07:35;9.55;;;2.60;;
81396;SDS011;70852;49.908;8.126;2024-02-15T11:10:03;7.47;;;2.42;;
81396;SDS011;70852;49.908;8.126;2024-02-15T11:12:33;6.97;;;2.72;;
81396;SDS011;70852;49.908;8.126;2024-02-15T11:14:59;5.60;;;2.55;;
81396;SDS011;70852;49.908;8.126;2024-02-15T11:17:44;5.50;;;2.30;;
81396;SDS011;70852;49.908;8.126;2024-02-15T11:22:57;6.63;;;2.65;;
81396;SDS011;70852;49.908;8.126;2024-02-15T11:30:52;4.57;;;2.40;;
81396;SDS011;70852;49.908;8.126;2024-02-15T11:33:30;6.40;;;2.67;;
81396;SDS011;70852;49.908;8.126;2024-02-15T11:38:31;5.20;;;2.30;;
81396;SDS011;70852;49.908;8.126;2024-02-15T11:46:11;8.35;;;2.65;;
81396;SDS011;70852;49.908;8.126;2024-02-15T11:48:38;4.88;;;2.42;;
81396;SDS011;70852;49.908;8.126;2024-02-15T11:51:07;8.48;;;3.22;;
81396;SDS011;70852;49.908;8.126;2024-02-15T11:56:06;7.47;;;2.63;;
81396;SDS011;70852;49.908;8.126;2024-02-15T11:58:35;5.22;;;2.15;;
81396;SDS011;70852;49.908;8.126;2024-02-15T12:01:17;7.15;;;3.30;;
81396;SDS011;70852;49.908;8.126;2024-02-15T12:04:01;10.63;;;3.15;;
81396;SDS011;70852;49.908;8.126;2024-02-15T12:06:45;3.72;;;1.80;;
81396;SDS011;70852;49.908;8.126;2024-02-15T12:09:29;4.18;;;1.90;;
81396;SDS011;70852;49.908;8.126;2024-02-15T12:12:16;5.43;;;1.95;;
81396;SDS011;70852;49.908;8.126;2024-02-15T12:15:03;6.05;;;1.85;;
81396;SDS011;70852;49.908;8.126;2024-02-15T12:17:47;5.47;;;1.80;;
81396;SDS011;70852;49.908;8.126;2024-02-15T12:20:31;3.80;;;1.73;;
81396;SDS011;70852;49.908;8.126;2024-02-15T12:22:57;5.25;;;2.03;;
81396;SDS011;70852;49.908;8.126;2024-02-15T12:25:31;6.20;;;1.63;;
81396;SDS011;70852;49.908;8.126;2024-02-15T12:27:59;3.90;;;1.77;;
81396;SDS011;70852;49.908;8.126;2024-02-15T12:30:25;5.13;;;2.00;;
81396;SDS011;70852;49.908;8.126;2024-02-15T12:33:10;6.63;;;2.10;;
81396;SDS011;70852;49.908;8.126;2024-02-15T12:35:44;6.38;;;1.90;;
81396;SDS011;70852;49.908;8.126;2024-02-15T12:38:12;4.68;;;1.80;;
81396;SDS011;70852;49.908;8.126;2024-02-15T12:40:41;3.60;;;1.80;;
81396;SDS011;70852;49.908;8.126;2024-02-15T12:43:06;5.97;;;2.00;;
81396;SDS011;70852;49.908;8.126;2024-02-15T12:45:35;4.07;;;1.60;;
81396;SDS011;70852;49.908;8.126;2024-02-15T12:48:02;6.82;;;2.20;;
81396;SDS011;70852;49.908;8.126;2024-02-15T12:50:29;4.10;;;1.70;;
81396;SDS011;70852;49.908;8.126;2024-02-15T12:52:55;4.78;;;1.80;;
81396;SDS011;70852;49.908;8.126;2024-02-15T12:55:27;4.47;;;1.88;;
81396;SDS011;70852;49.908;8.126;2024-02-15T12:58:00;4.95;;;1.88;;
81396;SDS011;70852;49.908;8.126;2024-02-15T13:00:33;3.10;;;1.42;;
81396;SDS011;70852;49.908;8.126;2024-02-15T13:03:04;4.82;;;1.35;;
81396;SDS011;70852;49.908;8.126;2024-02-15T13:05:33;5.88;;;1.65;;
81396;SDS011;70852;49.908;8.126;2024-02-15T13:07:59;3.63;;;1.60;;
81396;SDS011;70852;49.908;8.126;2024-02-15T13:10:27;6.65;;;1.65;;
81396;SDS011;70852;49.908;8.126;2024-02-15T13:12:54;8.93;;;1.77;;
81396;SDS011;70852;49.908;8.126;2024-02-15T13:15:20;4.90;;;1.60;;
81396;SDS011;70852;49.908;8.126;2024-02-15T13:17:49;3.45;;;1.30;;
81396;SDS011;70852;49.908;8.126;2024-02-15T13:20:20;3.17;;;1.30;;
81396;SDS011;70852;49.908;8.126;2024-02-15T13:22:55;4.00;;;1.42;;
81396;SDS011;70852;49.908;8.126;2024-02-15T13:25:25;4.95;;;1.60;;
81396;SDS011;70852;49.908;8.126;2024-02-15T13:27:53;3.38;;;1.63;;
81396;SDS011;70852;49.908;8.126;2024-02-15T13:30:21;3.50;;;1.38;;
81396;SDS011;70852;49.908;8.126;2024-02-15T13:32:52;6.68;;;2.13;;
81396;SDS011;70852;49.908;8.126;2024-02-15T13:35:20;3.72;;;1.38;;
81396;SDS011;70852;49.908;8.126;2024-02-15T13:37:49;10.82;;;3.30;;
81396;SDS011;70852;49.908;8.126;2024-02-15T13:40:19;7.47;;;3.22;;
81396;SDS011;70852;49.908;8.126;2024-02-15T13:42:51;3.42;;;1.50;;
81396;SDS011;70852;49.908;8.126;2024-02-15T13:45:22;4.22;;;1.50;;
81396;SDS011;70852;49.908;8.126;2024-02-15T13:47:55;4.65;;;1.35;;
81396;SDS011;70852;49.908;8.126;2024-02-15T13:50:23;3.13;;;1.10;;
81396;SDS011;70852;49.908;8.126;2024-02-15T13:52:49;4.45;;;1.30;;
81396;SDS011;70852;49.908;8.126;2024-02-15T13:55:22;4.32;;;1.23;;
81396;SDS011;70852;49.908;8.126;2024-02-15T13:57:50;4.55;;;1.50;;
81396;SDS011;70852;49.908;8.126;2024-02-15T14:00:20;4.22;;;1.50;;
81396;SDS011;70852;49.908;8.126;2024-02-15T14:02:52;4.88;;;1.20;;
81396;SDS011;70852;49.908;8.126;2024-02-15T14:05:22;3.10;;;1.50;;
81396;SDS011;70852;49.908;8.126;2024-02-15T14:10:20;4.00;;;1.30;;
81396;SDS011;70852;49.908;8.126;2024-02-15T14:12:49;4.68;;;1.15;;
81396;SDS011;70852;49.908;8.126;2024-02-15T14:15:36;3.75;;;1.30;;
81396;SDS011;70852;49.908;8.126;2024-02-15T14:18:06;4.00;;;1.33;;
81396;SDS011;70852;49.908;8.126;2024-02-15T14:20:35;4.82;;;1.42;;
81396;SDS011;70852;49.908;8.126;2024-02-15T14:23:05;4.05;;;1.45;;
81396;SDS011;70852;49.908;8.126;2024-02-15T14:25:38;3.22;;;1.30;;
81396;SDS011;70852;49.908;8.126;2024-02-15T14:28:04;3.10;;;1.10;;
81396;SDS011;70852;49.908;8.126;2024-02-15T14:30:32;5.00;;;1.58;;
81396;SDS011;70852;49.908;8.126;2024-02-15T14:33:16;4.13;;;1.10;;
81396;SDS011;70852;49.908;8.126;2024-02-15T14:35:45;2.50;;;1.15;;
81396;SDS011;70852;49.908;8.126;2024-02-15T14:38:13;3.40;;;1.15;;
81396;SDS011;70852;49.908;8.126;2024-02-15T14:40:43;3.35;;;1.10;;
81396;SDS011;70852;49.908;8.126;2024-02-15T14:43:25;2.80;;;1.50;;
81396;SDS011;70852;49.908;8.126;2024-02-15T14:45:51;2.80;;;1.40;;
81396;SDS011;70852;49.908;8.126;2024-02-15T14:48:26;3.35;;;1.17;;
81396;SDS011;70852;49.908;8.126;2024-02-15T14:50:52;3.33;;;1.08;;
81396;SDS011;70852;49.908;8.126;2024-02-15T14:53:19;2.80;;;1.08;;
81396;SDS011;70852;49.908;8.126;2024-02-15T14:55:45;4.10;;;1.30;;
81396;SDS011;70852;49.908;8.126;2024-02-15T14:58:14;5.57;;;1.45;;
81396;SDS011;70852;49.908;8.126;2024-02-15T15:00:42;4.05;;;1.30;;
81396;SDS011;70852;49.908;8.126;2024-02-15T15:03:12;3.70;;;1.20;;
81396;SDS011;70852;49.908;8.126;2024-02-15T15:05:40;4.72;;;1.40;;
81396;SDS011;70852;49.908;8.126;2024-02-15T15:08:27;2.90;;;1.30;;
81396;SDS011;70852;49.908;8.126;2024-02-15T15:11:13;3.58;;;1.30;;
81396;SDS011;70852;49.908;8.126;2024-02-15T15:13:57;4.18;;;1.83;;
81396;SDS011;70852;49.908;8.126;2024-02-15T15:16:25;4.82;;;1.42;;
81396;SDS011;70852;49.908;8.126;2024-02-15T15:18:56;3.60;;;1.80;;
81396;SDS011;70852;49.908;8.126;2024-02-15T15:21:21;6.95;;;1.80;;
81396;SDS011;70852;49.908;8.126;2024-02-15T15:23:48;5.35;;;1.50;;
81396;SDS011;70852;49.908;8.126;2024-02-15T15:26:18;3.78;;;1.42;;
81396;SDS011;70852;49.908;8.126;2024-02-15T15:28:50;4.57;;;1.75;;
81396;SDS011;70852;49.908;8.126;2024-02-15T15:31:20;3.08;;;1.50;;